createdAt,value
2018-06-20T00:00:29.984Z,22.12
2018-06-20T00:01:30.041Z,22.41
2018-06-20T00:03:23.037Z,22.22
2018-06-20T00:04:23.096Z,22.02
2018-06-20T00:06:16.097Z,22.22
2018-06-20T00:07:16.188Z,21.64
2018-06-20T00:09:09.153Z,22.02
2018-06-20T00:10:09.211Z,21.54
2018-06-20T00:12:02.212Z,21.73
2018-06-20T00:13:02.271Z,21.83
2018-06-20T00:14:55.263Z,21.54
2018-06-20T00:15:55.328Z,21.64
2018-06-20T00:17:48.328Z,21.73
2018-06-20T00:18:48.384Z,21.64
2018-06-20T00:20:41.401Z,21.54
2018-06-20T00:21:41.445Z,21.64
2018-06-20T00:23:34.438Z,21.54
2018-06-20T00:24:34.517Z,22.12
2018-06-20T00:26:27.507Z,21.73
2018-06-20T00:27:27.564Z,21.83
2018-06-20T00:29:20.566Z,21.15
2018-06-20T00:30:20.632Z,21.73
2018-06-20T00:32:13.632Z,21.64
2018-06-20T00:33:13.691Z,21.83
2018-06-20T00:35:06.683Z,21.92
2018-06-20T00:36:06.748Z,21.73
2018-06-20T00:37:59.747Z,21.73
2018-06-20T00:38:59.805Z,21.54
2018-06-20T00:40:52.797Z,21.54
2018-06-20T00:41:52.862Z,21.54
2018-06-20T00:43:45.862Z,21.25
2018-06-20T00:44:45.916Z,21.44
2018-06-20T00:46:38.924Z,21.25
2018-06-20T00:47:38.975Z,21.25
2018-06-20T00:49:31.967Z,21.25
2018-06-20T00:50:32.032Z,21.15
2018-06-20T00:52:25.033Z,21.35
2018-06-20T00:53:25.090Z,21.15
2018-06-20T00:55:18.089Z,21.06
2018-06-20T00:56:18.146Z,21.15
2018-06-20T00:58:11.147Z,21.15
2018-06-20T00:59:11.202Z,21.44
2018-06-20T01:01:04.206Z,21.35
2018-06-20T01:02:04.263Z,21.25
2018-06-20T01:03:57.263Z,21.06
2018-06-20T01:04:57.324Z,21.44
2018-06-20T01:06:50.314Z,21.54
2018-06-20T01:07:50.378Z,21.64
2018-06-20T01:09:43.380Z,21.06
2018-06-20T01:10:43.440Z,20.86
2018-06-20T01:12:36.439Z,20.86
2018-06-20T01:13:36.488Z,21.24
2018-06-20T01:15:29.490Z,20.95
2018-06-20T01:16:29.556Z,20.95
2018-06-20T01:18:22.558Z,20.95
2018-06-20T01:19:22.616Z,20.95
2018-06-20T01:21:15.613Z,21.24
2018-06-20T01:22:15.678Z,20.95
2018-06-20T01:24:08.681Z,21.15
2018-06-20T01:25:08.735Z,21.15
2018-06-20T01:27:01.726Z,21.15
2018-06-20T01:28:01.793Z,21.05
2018-06-20T01:29:54.795Z,21.05
2018-06-20T01:30:54.856Z,20.95
2018-06-20T01:32:47.848Z,20.86
2018-06-20T01:33:47.911Z,20.86
2018-06-20T01:35:40.922Z,21.24
2018-06-20T01:36:40.981Z,21.34
2018-06-20T01:38:33.982Z,21.15
2018-06-20T01:39:34.042Z,21.34
2018-06-20T01:41:27.036Z,21.34
2018-06-20T01:42:27.103Z,21.34
2018-06-20T01:44:20.098Z,21.35
2018-06-20T01:45:20.154Z,21.62
2018-06-20T01:47:13.146Z,21.72
2018-06-20T01:48:13.211Z,21.72
2018-06-20T01:50:06.211Z,21.64
2018-06-20T01:51:06.268Z,21.62
2018-06-20T01:52:59.260Z,21.62
2018-06-20T01:53:59.329Z,21.82
2018-06-20T01:55:52.323Z,21.34
2018-06-20T01:56:52.381Z,21.82
2018-06-20T01:58:45.397Z,21.82
2018-06-20T01:59:45.440Z,21.82
2018-06-20T02:01:38.431Z,22.39
2018-06-20T02:02:38.503Z,22.30
2018-06-20T02:04:31.496Z,22.30
2018-06-20T02:05:31.554Z,22.11
2018-06-20T02:07:24.547Z,22.11
2018-06-20T02:08:24.613Z,22.69
2018-06-20T02:10:17.612Z,22.69
2018-06-20T02:11:17.669Z,22.69
2018-06-20T02:13:10.661Z,22.59
2018-06-20T02:14:10.727Z,22.59
2018-06-20T02:16:03.724Z,22.79
2018-06-20T02:17:03.785Z,22.69
2018-06-20T02:18:56.775Z,22.88
2018-06-20T02:19:56.841Z,22.39
2018-06-20T02:21:49.840Z,22.78
2018-06-20T02:22:49.899Z,23.07
2018-06-20T02:24:42.900Z,22.78
2018-06-20T02:25:42.957Z,23.16
2018-06-20T02:27:35.986Z,22.88
2018-06-20T02:28:36.015Z,23.07
2018-06-20T02:30:29.013Z,23.36
2018-06-20T02:31:29.070Z,23.74
2018-06-20T02:33:22.063Z,23.36
2018-06-20T02:34:22.128Z,23.16
2018-06-20T02:36:15.127Z,23.36
2018-06-20T02:37:15.184Z,23.93
2018-06-20T02:39:08.187Z,23.93
2018-06-20T02:40:08.241Z,23.84
2018-06-20T02:42:01.250Z,24.22
2018-06-20T02:43:01.298Z,24.03
2018-06-20T02:44:54.299Z,24.41
2018-06-20T02:45:54.360Z,24.41
2018-06-20T02:47:47.360Z,24.41
2018-06-20T02:48:47.416Z,24.41
2018-06-20T02:50:40.416Z,24.22
2018-06-20T02:51:40.474Z,24.32
2018-06-20T02:53:33.979Z,24.22
2018-06-20T02:54:34.042Z,24.41
2018-06-20T02:56:27.043Z,25.09
2018-06-20T02:57:27.096Z,24.90
2018-06-20T02:59:20.089Z,25.28
2018-06-20T03:00:20.157Z,25.28
2018-06-20T03:02:13.154Z,25.57
2018-06-20T03:03:13.210Z,25.09
2018-06-20T03:05:06.206Z,25.18
2018-06-20T03:06:06.273Z,25.28
2018-06-20T03:07:59.273Z,25.67
2018-06-20T03:08:59.331Z,25.57
2018-06-20T03:10:52.324Z,25.57
2018-06-20T03:11:52.393Z,25.57
2018-06-20T03:13:45.392Z,25.38
2018-06-20T03:14:45.445Z,25.76
2018-06-20T03:16:38.446Z,25.67
2018-06-20T03:17:38.506Z,25.76
2018-06-20T03:19:31.498Z,26.05
2018-06-20T03:20:31.562Z,25.85
2018-06-20T03:22:24.559Z,26.15
2018-06-20T03:23:24.614Z,26.43
2018-06-20T03:25:17.606Z,26.53
2018-06-20T03:26:17.672Z,26.62
2018-06-20T03:28:10.675Z,26.43
2018-06-20T03:29:10.728Z,26.43
2018-06-20T03:31:03.727Z,26.82
2018-06-20T03:32:03.786Z,26.92
2018-06-20T03:33:56.785Z,27.39
2018-06-20T03:34:56.841Z,27.20
2018-06-20T03:36:49.832Z,27.01
2018-06-20T03:37:49.898Z,27.01
2018-06-20T03:39:43.408Z,27.39
2018-06-20T03:40:43.464Z,27.11
2018-06-20T03:42:36.470Z,27.30
2018-06-20T03:43:36.528Z,27.39
2018-06-20T03:45:29.522Z,27.39
2018-06-20T03:46:29.587Z,27.87
2018-06-20T03:48:22.586Z,27.87
2018-06-20T03:49:22.643Z,27.69
2018-06-20T03:51:15.637Z,28.16
2018-06-20T03:52:15.701Z,28.16
2018-06-20T03:54:08.701Z,27.87
2018-06-20T03:55:08.758Z,28.07
2018-06-20T03:57:01.751Z,28.18
2018-06-20T03:58:01.818Z,28.07
2018-06-20T03:59:54.815Z,28.45
2018-06-20T04:00:54.877Z,28.45
2018-06-20T04:02:47.879Z,28.74
2018-06-20T04:03:47.931Z,28.84
2018-06-20T04:05:40.934Z,28.93
2018-06-20T04:06:40.988Z,29.04
2018-06-20T04:08:34.007Z,29.14
2018-06-20T04:09:34.046Z,29.33
2018-06-20T04:11:27.039Z,29.22
2018-06-20T04:12:27.103Z,29.41
2018-06-20T04:14:20.107Z,29.14
2018-06-20T04:15:20.169Z,29.43
2018-06-20T04:17:13.161Z,29.43
2018-06-20T04:18:13.284Z,29.62
2018-06-20T04:20:06.222Z,29.81
2018-06-20T04:21:06.279Z,30.00
2018-06-20T04:22:59.270Z,30.10
2018-06-20T04:23:59.335Z,29.72
2018-06-20T04:25:52.337Z,30.39
2018-06-20T04:26:52.392Z,30.68
2018-06-20T04:28:45.396Z,30.97
2018-06-20T04:29:45.451Z,30.77
2018-06-20T04:31:38.443Z,31.16
2018-06-20T04:32:38.510Z,31.37
2018-06-20T04:34:31.526Z,31.27
2018-06-20T04:35:31.579Z,31.56
2018-06-20T04:37:24.559Z,32.33
2018-06-20T04:38:24.624Z,32.23
2018-06-20T04:40:17.624Z,32.43
2018-06-20T04:41:17.684Z,32.52
2018-06-20T04:43:10.673Z,32.62
2018-06-20T04:44:10.740Z,32.43
2018-06-20T04:46:03.744Z,32.52
2018-06-20T04:47:03.798Z,32.23
2018-06-20T04:48:56.811Z,32.71
2018-06-20T04:49:56.860Z,32.43
2018-06-20T04:51:49.851Z,32.81
2018-06-20T04:52:49.920Z,33.00
2018-06-20T04:54:42.917Z,32.81
2018-06-20T04:55:42.977Z,32.64
2018-06-20T04:57:35.971Z,33.20
2018-06-20T04:58:36.037Z,33.31
2018-06-20T05:00:29.039Z,32.92
2018-06-20T05:01:29.095Z,33.21
2018-06-20T05:03:22.089Z,33.31
2018-06-20T05:04:22.179Z,33.31
2018-06-20T05:06:15.155Z,33.40
2018-06-20T05:07:15.214Z,33.59
2018-06-20T05:09:08.231Z,33.79
2018-06-20T05:10:08.275Z,33.69
2018-06-20T05:12:01.273Z,34.08
2018-06-20T05:13:01.339Z,34.08
2018-06-20T05:14:54.336Z,34.84
2018-06-20T05:15:54.393Z,34.56
2018-06-20T05:17:47.388Z,34.67
2018-06-20T05:18:47.453Z,34.48
2018-06-20T05:20:40.457Z,34.56
2018-06-20T05:21:40.512Z,34.19
2018-06-20T05:23:33.509Z,35.25
2018-06-20T05:24:33.578Z,35.16
2018-06-20T05:26:26.577Z,35.35
2018-06-20T05:27:26.635Z,36.31
2018-06-20T05:29:19.628Z,35.75
2018-06-20T05:30:19.696Z,37.10
2018-06-20T05:32:12.695Z,37.01
2018-06-20T05:33:12.754Z,37.19
2018-06-20T05:35:05.773Z,38.64
2018-06-20T05:36:05.813Z,37.68
2018-06-20T05:37:58.814Z,38.16
2018-06-20T05:38:58.875Z,37.19
2018-06-20T05:40:51.877Z,37.10
2018-06-20T05:41:52.016Z,37.19
2018-06-20T05:43:44.933Z,37.58
2018-06-20T05:44:44.998Z,37.96
2018-06-20T05:46:37.999Z,37.77
2018-06-20T05:47:38.058Z,36.81
2018-06-20T05:49:31.052Z,38.54
2018-06-20T05:50:31.118Z,39.12
2018-06-20T05:52:24.120Z,39.14
2018-06-20T05:53:24.178Z,38.46
2018-06-20T05:55:17.186Z,38.08
2018-06-20T05:56:17.241Z,39.34
2018-06-20T05:58:10.236Z,39.91
2018-06-20T05:59:10.303Z,39.04
2018-06-20T06:01:03.305Z,40.11
2018-06-20T06:02:03.364Z,40.30
2018-06-20T06:03:56.365Z,41.65
2018-06-20T06:04:56.427Z,42.52
2018-06-20T06:06:49.435Z,41.75
2018-06-20T06:07:49.495Z,40.32
2018-06-20T06:09:42.489Z,41.36
2018-06-20T06:10:42.556Z,44.15
2018-06-20T06:12:35.558Z,40.30
2018-06-20T06:13:35.618Z,39.79
2018-06-20T06:15:28.625Z,40.47
2018-06-20T06:16:28.678Z,39.61
2018-06-20T06:18:21.676Z,39.12
2018-06-20T06:19:21.743Z,38.85
2018-06-20T06:21:14.744Z,41.75
2018-06-20T06:22:14.801Z,40.59
2018-06-20T06:24:07.797Z,42.32
2018-06-20T06:25:07.863Z,43.87
2018-06-20T06:27:00.865Z,44.25
2018-06-20T06:28:00.924Z,44.76
2018-06-20T06:29:53.921Z,42.05
2018-06-20T06:30:53.983Z,45.72
2018-06-20T06:32:46.987Z,47.19
2018-06-20T06:33:47.047Z,48.74
2018-06-20T06:35:40.049Z,48.83
2018-06-20T06:36:40.108Z,49.02
2018-06-20T06:38:33.115Z,49.15
2018-06-20T06:39:33.176Z,48.83
2018-06-20T06:41:26.189Z,49.53
2018-06-20T06:42:26.237Z,50.40
2018-06-20T06:44:19.234Z,50.40
2018-06-20T06:45:19.297Z,50.13
2018-06-20T06:47:12.309Z,52.75
2018-06-20T06:48:12.370Z,50.52
2018-06-20T06:50:05.519Z,51.59
2018-06-20T06:51:05.436Z,51.87
2018-06-20T06:52:58.438Z,48.69
2018-06-20T06:53:58.501Z,48.79
2018-06-20T06:55:51.502Z,51.97
2018-06-20T06:56:51.572Z,52.07
2018-06-20T06:58:44.575Z,50.43
2018-06-20T06:59:44.634Z,52.29
2018-06-20T07:01:37.633Z,51.32
2018-06-20T07:02:37.719Z,53.74
2018-06-20T07:04:30.704Z,50.35
2018-06-20T07:05:30.765Z,54.13
2018-06-20T07:07:23.772Z,54.13
2018-06-20T07:08:23.829Z,52.77
2018-06-20T07:10:16.828Z,54.32
2018-06-20T07:11:16.899Z,49.97
2018-06-20T07:13:09.903Z,53.23
2018-06-20T07:14:09.961Z,52.17
2018-06-20T07:16:02.966Z,50.81
2018-06-20T07:17:03.033Z,50.81
2018-06-20T07:18:56.037Z,50.13
2018-06-20T07:19:56.098Z,50.04
2018-06-20T07:21:49.095Z,51.39
2018-06-20T07:22:49.163Z,51.78
2018-06-20T07:24:42.170Z,53.42
2018-06-20T07:25:42.233Z,51.71
2018-06-20T07:27:35.238Z,56.28
2018-06-20T07:28:35.304Z,59.98
2018-06-20T07:30:28.311Z,61.82
2018-06-20T07:31:28.377Z,61.33
2018-06-20T07:33:21.379Z,65.63
2018-06-20T07:34:21.455Z,67.30
2018-06-20T07:36:14.498Z,68.08
2018-06-20T07:37:14.506Z,71.12
2018-06-20T07:39:08.020Z,72.61
2018-06-20T07:40:08.079Z,75.36
2018-06-20T07:42:01.088Z,77.18
2018-06-20T07:43:01.149Z,74.91
2018-06-20T07:44:54.202Z,77.37
2018-06-20T07:45:54.223Z,77.24
2018-06-20T07:47:47.259Z,76.91
2018-06-20T07:48:47.293Z,75.23
2018-06-20T07:50:40.351Z,76.45
2018-06-20T07:51:40.370Z,75.24
2018-06-20T07:53:33.375Z,69.31
2018-06-20T07:54:33.439Z,70.82
2018-06-20T07:56:26.452Z,72.95
2018-06-20T07:57:26.513Z,73.85
2018-06-20T07:59:19.521Z,76.00
2018-06-20T08:00:19.581Z,77.45
2018-06-20T08:02:12.586Z,77.20
2018-06-20T08:03:12.655Z,78.03
2018-06-20T08:05:05.667Z,76.00
2018-06-20T08:06:05.727Z,75.67
2018-06-20T08:07:58.728Z,73.99
2018-06-20T08:08:58.798Z,77.94
2018-06-20T08:10:51.806Z,79.49
2018-06-20T08:11:51.871Z,78.25
2018-06-20T08:13:44.873Z,77.41
2018-06-20T08:14:44.941Z,78.44
2018-06-20T08:16:37.950Z,78.50
2018-06-20T08:17:38.015Z,78.50
2018-06-20T08:19:31.028Z,78.67
2018-06-20T08:20:31.089Z,78.54
2018-06-20T08:22:24.095Z,78.59
2018-06-20T08:23:24.160Z,78.59
2018-06-20T08:25:17.171Z,77.72
2018-06-20T08:26:17.237Z,78.21
2018-06-20T08:28:10.246Z,78.42
2018-06-20T08:29:10.313Z,78.23
2018-06-20T08:31:03.332Z,76.97
2018-06-20T08:32:03.388Z,77.55
2018-06-20T08:33:56.391Z,78.31
2018-06-20T08:34:56.463Z,78.17
2018-06-20T08:36:49.475Z,78.75
2018-06-20T08:37:49.538Z,76.58
2018-06-20T08:39:43.057Z,78.23
2018-06-20T08:40:43.123Z,78.75
2018-06-20T08:42:36.137Z,79.61
2018-06-20T08:43:36.200Z,78.40
2018-06-20T08:45:29.213Z,77.04
2018-06-20T08:46:29.277Z,76.40
2018-06-20T08:48:22.283Z,78.31
2018-06-20T08:49:22.356Z,77.92
2018-06-20T08:51:15.368Z,77.43
2018-06-20T08:52:15.426Z,78.36
2018-06-20T08:54:08.436Z,78.40
2018-06-20T08:55:08.502Z,77.92
2018-06-20T08:57:01.516Z,78.07
2018-06-20T08:58:01.584Z,78.23
2018-06-20T08:59:54.589Z,77.70
2018-06-20T09:00:54.656Z,78.77
2018-06-20T09:02:47.668Z,78.19
2018-06-20T09:03:47.732Z,77.19
2018-06-20T09:05:40.735Z,76.60
2018-06-20T09:06:40.805Z,77.67
2018-06-20T09:08:33.843Z,79.20
2018-06-20T09:09:33.878Z,79.24
2018-06-20T09:11:26.889Z,78.59
2018-06-20T09:12:26.949Z,79.71
2018-06-20T09:14:19.959Z,78.38
2018-06-20T09:15:20.023Z,78.73
2018-06-20T09:17:13.036Z,75.91
2018-06-20T09:18:13.100Z,76.42
2018-06-20T09:20:06.114Z,77.31
2018-06-20T09:21:06.181Z,77.14
2018-06-20T09:22:59.193Z,78.75
2018-06-20T09:23:59.256Z,78.11
2018-06-20T09:25:52.263Z,78.27
2018-06-20T09:26:52.329Z,78.50
2018-06-20T09:28:45.344Z,77.82
2018-06-20T09:29:45.407Z,77.72
2018-06-20T09:31:38.410Z,78.99
2018-06-20T09:32:38.481Z,78.89
2018-06-20T09:34:31.489Z,78.25
2018-06-20T09:35:31.554Z,78.73
2018-06-20T09:37:24.562Z,78.19
2018-06-20T09:38:24.629Z,78.38
2018-06-20T09:40:17.632Z,77.31
2018-06-20T09:41:17.701Z,77.22
2018-06-20T09:43:10.713Z,76.87
2018-06-20T09:44:10.778Z,77.35
2018-06-20T09:46:03.782Z,77.29
2018-06-20T09:47:03.852Z,77.06
2018-06-20T09:48:56.861Z,76.42
2018-06-20T09:49:56.927Z,77.29
2018-06-20T09:51:49.932Z,77.48
2018-06-20T09:52:50.003Z,76.71
2018-06-20T09:54:43.015Z,76.42
2018-06-20T09:55:43.079Z,76.51
2018-06-20T09:57:36.084Z,78.28
2018-06-20T09:58:36.156Z,77.02
2018-06-20T10:00:29.208Z,77.31
2018-06-20T10:01:29.272Z,77.51
2018-06-20T10:03:22.246Z,77.41
2018-06-20T10:04:22.306Z,76.89
2018-06-20T10:06:15.314Z,78.05
2018-06-20T10:07:15.387Z,78.50
2018-06-20T10:09:08.398Z,77.95
2018-06-20T10:10:08.461Z,78.21
2018-06-20T10:12:01.467Z,78.15
2018-06-20T10:13:01.537Z,77.90
2018-06-20T10:14:54.544Z,76.42
2018-06-20T10:15:54.609Z,76.71
2018-06-20T10:17:47.618Z,76.42
2018-06-20T10:18:47.688Z,75.58
2018-06-20T10:20:40.699Z,74.51
2018-06-20T10:21:40.762Z,75.19
2018-06-20T10:23:33.772Z,74.80
2018-06-20T10:24:33.840Z,74.71
2018-06-20T10:26:26.851Z,74.71
2018-06-20T10:27:26.916Z,75.68
2018-06-20T10:29:19.928Z,75.74
2018-06-20T10:30:19.992Z,76.42
2018-06-20T10:32:13.000Z,75.95
2018-06-20T10:33:13.068Z,77.18
2018-06-20T10:35:06.080Z,77.08
2018-06-20T10:36:06.145Z,76.50
2018-06-20T10:37:59.152Z,77.62
2018-06-20T10:38:59.233Z,77.14
2018-06-20T10:40:52.233Z,77.72
2018-06-20T10:41:52.297Z,77.04
2018-06-20T10:43:45.304Z,77.37
2018-06-20T10:44:45.371Z,77.86
2018-06-20T10:46:38.661Z,77.99
2018-06-20T10:47:38.727Z,77.41
2018-06-20T10:49:31.735Z,77.51
2018-06-20T10:50:31.799Z,76.57
2018-06-20T10:52:24.803Z,75.60
2018-06-20T10:53:24.877Z,75.45
2018-06-20T10:55:17.888Z,76.71
2018-06-20T10:56:17.946Z,75.78
2018-06-20T10:58:10.955Z,74.61
2018-06-20T10:59:11.022Z,73.83
2018-06-20T11:01:04.035Z,74.22
2018-06-20T11:02:04.104Z,74.38
2018-06-20T11:03:57.107Z,76.03
2018-06-20T11:04:57.173Z,75.51
2018-06-20T11:06:50.187Z,77.20
2018-06-20T11:07:50.248Z,75.64
2018-06-20T11:09:43.321Z,74.38
2018-06-20T11:10:43.320Z,74.51
2018-06-20T11:12:36.328Z,73.89
2018-06-20T11:13:36.393Z,73.69
2018-06-20T11:15:29.491Z,76.12
2018-06-20T11:16:29.466Z,77.39
2018-06-20T11:18:22.472Z,75.78
2018-06-20T11:19:22.540Z,75.35
2018-06-20T11:21:15.550Z,74.99
2018-06-20T11:22:15.612Z,74.80
2018-06-20T11:24:08.617Z,74.90
2018-06-20T11:25:08.687Z,75.29
2018-06-20T11:27:01.696Z,74.74
2018-06-20T11:28:01.761Z,74.02
2018-06-20T11:29:54.772Z,73.15
2018-06-20T11:30:54.835Z,75.19
2018-06-20T11:32:47.842Z,75.99
2018-06-20T11:33:47.908Z,75.95
2018-06-20T11:35:40.916Z,76.50
2018-06-20T11:36:40.982Z,76.73
2018-06-20T11:38:33.987Z,77.00
2018-06-20T11:39:34.113Z,77.20
2018-06-20T11:41:27.066Z,75.45
2018-06-20T11:42:27.127Z,73.40
2018-06-20T11:44:20.133Z,73.99
2018-06-20T11:45:20.200Z,71.94
2018-06-20T11:47:13.211Z,70.49
2018-06-20T11:48:13.276Z,73.40
2018-06-20T11:50:06.288Z,72.92
2018-06-20T11:51:06.353Z,74.86
2018-06-20T11:52:59.356Z,73.46
2018-06-20T11:53:59.436Z,73.46
2018-06-20T11:55:52.438Z,73.11
2018-06-20T11:56:52.501Z,74.48
2018-06-20T11:58:45.510Z,73.40
2018-06-20T11:59:45.574Z,74.57
2018-06-20T12:01:38.584Z,73.50
2018-06-20T12:02:38.647Z,74.48
2018-06-20T12:04:31.655Z,74.18
2018-06-20T12:05:31.721Z,74.92
2018-06-20T12:07:24.736Z,75.15
2018-06-20T12:08:24.800Z,75.15
2018-06-20T12:10:17.807Z,76.22
2018-06-20T12:11:17.873Z,73.54
2018-06-20T12:13:10.880Z,73.21
2018-06-20T12:14:10.947Z,74.38
2018-06-20T12:16:03.958Z,73.83
2018-06-20T12:17:04.018Z,75.38
2018-06-20T12:18:57.020Z,69.84
2018-06-20T12:19:57.090Z,72.96
2018-06-20T12:21:50.101Z,74.51
2018-06-20T12:22:50.162Z,73.83
2018-06-20T12:24:43.165Z,73.69
2018-06-20T12:25:43.234Z,74.48
2018-06-20T12:27:36.243Z,73.73
2018-06-20T12:28:36.307Z,75.68
2018-06-20T12:30:29.312Z,74.71
2018-06-20T12:31:29.387Z,74.80
2018-06-20T12:33:22.389Z,73.08
2018-06-20T12:34:22.452Z,71.11
2018-06-20T12:36:15.461Z,72.96
2018-06-20T12:37:15.526Z,72.17
2018-06-20T12:39:09.037Z,72.66
2018-06-20T12:40:09.110Z,73.24
2018-06-20T12:42:02.123Z,73.34
2018-06-20T12:43:02.177Z,74.02
2018-06-20T12:44:55.184Z,74.32
2018-06-20T12:45:55.252Z,73.15
2018-06-20T12:47:48.264Z,75.19
2018-06-20T12:48:48.326Z,74.71
2018-06-20T12:50:41.339Z,73.44
2018-06-20T12:51:41.405Z,73.02
2018-06-20T12:53:34.417Z,74.28
2018-06-20T12:54:34.480Z,75.25
2018-06-20T12:56:27.505Z,73.50
2018-06-20T12:57:27.557Z,71.56
2018-06-20T12:59:20.559Z,73.11
2018-06-20T13:00:20.623Z,72.17
2018-06-20T13:02:13.631Z,70.97
2018-06-20T13:03:13.696Z,73.15
2018-06-20T13:05:06.695Z,72.53
2018-06-20T13:06:06.770Z,74.38
2018-06-20T13:07:59.775Z,74.41
2018-06-20T13:08:59.839Z,73.44
2018-06-20T13:10:52.840Z,71.69
2018-06-20T13:11:52.911Z,69.26
2018-06-20T13:13:45.922Z,72.53
2018-06-20T13:14:45.982Z,73.40
2018-06-20T13:16:38.993Z,73.89
2018-06-20T13:17:39.055Z,71.17
2018-06-20T13:19:32.064Z,74.61
2018-06-20T13:20:32.129Z,72.17
2018-06-20T13:22:25.140Z,70.10
2018-06-20T13:23:25.200Z,71.36
2018-06-20T13:25:18.201Z,73.11
2018-06-20T13:26:18.273Z,72.63
2018-06-20T13:28:11.281Z,72.66
2018-06-20T13:29:11.346Z,71.11
2018-06-20T13:31:04.365Z,67.54
2018-06-20T13:32:04.418Z,68.22
2018-06-20T13:33:57.425Z,70.26
2018-06-20T13:34:57.486Z,70.26
2018-06-20T13:36:50.495Z,67.70
2018-06-20T13:37:50.561Z,68.09
2018-06-20T13:39:44.195Z,66.93
2018-06-20T13:40:44.138Z,66.73
2018-06-20T13:42:37.146Z,67.70
2018-06-20T13:43:37.219Z,68.29
2018-06-20T13:45:30.226Z,69.26
2018-06-20T13:46:30.295Z,68.19
2018-06-20T13:48:23.307Z,70.52
2018-06-20T13:49:23.370Z,73.34
2018-06-20T13:51:16.376Z,70.36
2018-06-20T13:52:16.496Z,70.52
2018-06-20T13:54:09.452Z,71.04
2018-06-20T13:55:09.513Z,70.17
2018-06-20T13:57:02.516Z,66.21
2018-06-20T13:58:02.583Z,67.05
2018-06-20T13:59:55.596Z,69.39
2018-06-20T14:00:55.659Z,66.17
2018-06-20T14:02:48.665Z,68.51
2018-06-20T14:03:48.731Z,68.41
2018-06-20T14:05:41.740Z,70.17
2018-06-20T14:06:41.803Z,71.92
2018-06-20T14:08:34.808Z,69.39
2018-06-20T14:09:34.879Z,68.51
2018-06-20T14:11:27.986Z,69.20
2018-06-20T14:12:27.946Z,67.73
2018-06-20T14:14:20.954Z,63.94
2018-06-20T14:15:21.017Z,64.81
2018-06-20T14:17:14.026Z,65.40
2018-06-20T14:18:14.095Z,63.75
2018-06-20T14:20:07.102Z,68.32
2018-06-20T14:21:07.167Z,66.73
2018-06-20T14:23:00.174Z,67.50
2018-06-20T14:24:00.242Z,68.57
2018-06-20T14:25:53.255Z,65.85
2018-06-20T14:26:53.319Z,67.83
2018-06-20T14:28:46.326Z,66.96
2018-06-20T14:29:46.430Z,64.39
2018-06-20T14:31:39.400Z,64.29
2018-06-20T14:32:39.463Z,68.48
2018-06-20T14:34:32.485Z,68.38
2018-06-20T14:35:32.532Z,71.11
2018-06-20T14:37:25.570Z,67.35
2018-06-20T14:38:25.608Z,66.08
2018-06-20T14:40:18.629Z,68.67
2018-06-20T14:41:18.692Z,69.94
2018-06-20T14:43:11.710Z,68.77
2018-06-20T14:44:11.762Z,70.65
2018-06-20T14:46:04.795Z,67.83
2018-06-20T14:47:04.848Z,63.84
2018-06-20T14:48:57.850Z,62.19
2018-06-20T14:49:57.933Z,64.23
2018-06-20T14:51:50.924Z,64.13
2018-06-20T14:52:50.989Z,62.77
2018-06-20T14:54:44.508Z,61.38
2018-06-20T14:55:44.579Z,62.45
2018-06-20T14:57:38.110Z,63.23
2018-06-20T14:58:38.173Z,61.47
2018-06-20T15:00:31.200Z,61.28
2018-06-20T15:01:31.242Z,62.26
2018-06-20T15:03:24.261Z,64.88
2018-06-20T15:04:24.329Z,67.31
2018-06-20T15:06:17.334Z,67.02
2018-06-20T15:07:17.396Z,64.98
2018-06-20T15:09:10.400Z,63.13
2018-06-20T15:10:10.467Z,65.08
2018-06-20T15:12:03.480Z,62.06
2018-06-20T15:13:03.549Z,60.31
2018-06-20T15:14:56.548Z,58.75
2018-06-20T15:15:56.615Z,58.95
2018-06-20T15:17:49.627Z,61.67
2018-06-20T15:18:49.689Z,61.57
2018-06-20T15:20:42.697Z,62.35
2018-06-20T15:21:42.843Z,59.72
2018-06-20T15:23:35.772Z,60.41
2018-06-20T15:24:35.835Z,63.13
2018-06-20T15:26:28.842Z,64.69
2018-06-20T15:27:28.904Z,66.44
2018-06-20T15:29:21.911Z,68.96
2018-06-20T15:30:21.981Z,66.73
2018-06-20T15:32:14.992Z,65.75
2018-06-20T15:33:15.053Z,66.14
2018-06-20T15:35:08.059Z,67.02
2018-06-20T15:36:08.124Z,64.20
2018-06-20T15:38:01.133Z,62.64
2018-06-20T15:39:01.194Z,64.69
2018-06-20T15:40:54.204Z,64.10
2018-06-20T15:41:54.274Z,63.59
2018-06-20T15:43:47.277Z,67.21
2018-06-20T15:44:47.397Z,65.82
2018-06-20T15:46:40.358Z,70.29
2018-06-20T15:47:40.418Z,66.89
2018-06-20T15:49:33.416Z,63.71
2018-06-20T15:50:33.486Z,63.97
2018-06-20T15:52:26.494Z,62.51
2018-06-20T15:53:26.557Z,63.52
2018-06-20T15:55:19.561Z,63.78
2018-06-20T15:56:19.630Z,64.95
2018-06-20T15:58:12.642Z,62.51
2018-06-20T15:59:12.700Z,62.61
2018-06-20T16:01:05.712Z,63.97
2018-06-20T16:02:05.784Z,66.89
2018-06-20T16:03:58.792Z,73.11
2018-06-20T16:04:58.856Z,69.61
2018-06-20T16:06:52.377Z,71.91
2018-06-20T16:07:52.432Z,70.94
2018-06-20T16:09:45.467Z,72.30
2018-06-20T16:10:45.513Z,66.96
2018-06-20T16:12:38.524Z,68.80
2018-06-20T16:13:38.584Z,72.17
2018-06-20T16:15:31.589Z,66.92
2018-06-20T16:16:31.660Z,64.20
2018-06-20T16:18:24.665Z,70.51
2018-06-20T16:19:24.728Z,62.74
2018-06-20T16:21:17.735Z,61.87
2018-06-20T16:22:17.802Z,63.75
2018-06-20T16:24:10.814Z,66.27
2018-06-20T16:25:10.879Z,66.76
2018-06-20T16:27:03.886Z,61.02
2018-06-20T16:28:03.951Z,61.41
2018-06-20T16:29:56.996Z,61.61
2018-06-20T16:30:57.075Z,61.61
2018-06-20T16:32:50.073Z,61.61
2018-06-20T16:33:50.133Z,59.95
2018-06-20T16:35:43.146Z,59.86
2018-06-20T16:36:43.224Z,59.18
2018-06-20T16:38:36.218Z,62.00
2018-06-20T16:39:36.282Z,58.31
2018-06-20T16:41:29.285Z,63.04
2018-06-20T16:42:29.356Z,59.83
2018-06-20T16:44:22.370Z,63.13
2018-06-20T16:45:22.431Z,64.98
2018-06-20T16:47:15.445Z,68.35
2018-06-20T16:48:15.498Z,62.62
2018-06-20T16:50:08.504Z,61.65
2018-06-20T16:51:08.570Z,68.93
2018-06-20T16:53:01.582Z,62.23
2018-06-20T16:54:01.643Z,59.90
2018-06-20T16:55:54.644Z,68.25
2018-06-20T16:56:54.712Z,68.83
2018-06-20T16:58:47.722Z,66.37
2018-06-20T16:59:47.782Z,65.82
2018-06-20T17:01:40.794Z,66.99
2018-06-20T17:02:40.854Z,66.02
2018-06-20T17:04:33.862Z,66.40
2018-06-20T17:05:33.924Z,68.73
2018-06-20T17:07:26.925Z,67.96
2018-06-20T17:08:26.994Z,61.25
2018-06-20T17:10:20.000Z,64.46
2018-06-20T17:11:20.057Z,64.46
2018-06-20T17:13:13.073Z,66.50
2018-06-20T17:14:13.137Z,64.07
2018-06-20T17:16:06.134Z,63.81
2018-06-20T17:17:06.205Z,68.05
2018-06-20T17:18:59.781Z,62.62
2018-06-20T17:19:59.782Z,63.01
2018-06-20T17:21:52.786Z,64.56
2018-06-20T17:22:52.853Z,68.05
2018-06-20T17:24:45.868Z,64.46
2018-06-20T17:25:45.923Z,63.10
2018-06-20T17:27:38.929Z,67.76
2018-06-20T17:28:39.004Z,62.71
2018-06-20T17:30:32.010Z,68.60
2018-06-20T17:31:32.071Z,66.30
2018-06-20T17:33:25.079Z,72.19
2018-06-20T17:34:25.140Z,68.99
2018-06-20T17:36:18.150Z,66.27
2018-06-20T17:37:18.236Z,69.38
2018-06-20T17:39:11.222Z,66.27
2018-06-20T17:40:11.285Z,64.53
2018-06-20T17:42:04.293Z,64.04
2018-06-20T17:43:04.360Z,63.07
2018-06-20T17:44:57.375Z,67.05
2018-06-20T17:45:57.436Z,62.68
2018-06-20T17:47:50.447Z,68.51
2018-06-20T17:48:50.506Z,66.34
2018-06-20T17:50:43.517Z,64.62
2018-06-20T17:51:43.580Z,63.95
2018-06-20T17:53:36.589Z,68.18
2018-06-20T17:54:36.651Z,66.63
2018-06-20T17:56:29.654Z,68.08
2018-06-20T17:57:29.717Z,67.99
2018-06-20T17:59:22.725Z,69.34
2018-06-20T18:00:22.806Z,70.03
2018-06-20T18:02:15.789Z,72.51
2018-06-20T18:03:15.862Z,69.99
2018-06-20T18:05:08.868Z,69.89
2018-06-20T18:06:08.929Z,70.76
2018-06-20T18:08:01.931Z,68.34
2018-06-20T18:09:02.006Z,71.93
2018-06-20T18:10:55.011Z,73.19
2018-06-20T18:11:55.070Z,73.09
2018-06-20T18:13:48.106Z,73.58
2018-06-20T18:14:48.139Z,70.76
2018-06-20T18:16:41.172Z,72.51
2018-06-20T18:17:41.207Z,73.38
2018-06-20T18:19:34.221Z,71.25
2018-06-20T18:20:34.282Z,69.31
2018-06-20T18:22:27.281Z,70.86
2018-06-20T18:23:27.346Z,72.41
2018-06-20T18:25:20.360Z,70.09
2018-06-20T18:26:20.424Z,72.41
2018-06-20T18:28:13.423Z,73.19
2018-06-20T18:29:13.486Z,72.71
2018-06-20T18:31:06.500Z,71.64
2018-06-20T18:32:06.613Z,73.19
2018-06-20T18:33:59.582Z,71.93